createdAt,value
2023-04-06T00:00:17.138Z,76.32
2023-04-06T00:02:53.628Z,73.95
2023-04-06T00:05:35.919Z,89.05
2023-04-06T00:08:10.136Z,196.93
2023-04-06T00:10:54.337Z,70.90
2023-04-06T00:13:39.748Z,77.95
2023-04-06T00:16:22.018Z,77.47
2023-04-06T00:19:04.447Z,136.52
2023-04-06T00:22:19.576Z,63.88
2023-04-06T00:25:22.884Z,70.18
2023-04-06T00:28:09.652Z,98.38
2023-04-06T00:31:09.349Z,99.90
2023-04-06T00:33:46.150Z,79.82
2023-04-06T00:36:21.921Z,100.35
2023-04-06T00:39:03.492Z,139.80
2023-04-06T00:41:37.613Z,110.03
2023-04-06T00:44:29.600Z,94.03
2023-04-06T00:47:06.540Z,78.78
2023-04-06T00:49:56.907Z,76.53
2023-04-06T00:52:36.402Z,99.68
2023-04-06T00:55:11.618Z,74.68
2023-04-06T00:57:45.501Z,68.10
2023-04-06T01:00:27.537Z,63.25
2023-04-06T01:03:08.201Z,74.63
2023-04-06T01:05:42.127Z,78.57
2023-04-06T01:08:21.722Z,104.68
2023-04-06T01:11:12.013Z,72.07
2023-04-06T01:13:53.264Z,70.10
2023-04-06T01:16:24.105Z,73.60
2023-04-06T01:19:12.469Z,76.50
2023-04-06T01:21:54.556Z,76.28
2023-04-06T01:24:28.560Z,80.80
2023-04-06T01:27:06.337Z,77.55
2023-04-06T01:29:46.232Z,79.72
2023-04-06T01:32:18.435Z,85.05
2023-04-06T01:34:48.696Z,77.65
2023-04-06T01:40:11.766Z,102.50
2023-04-06T01:42:55.750Z,83.20
2023-04-06T01:45:30.196Z,176.60
2023-04-06T01:48:13.208Z,133.20
2023-04-06T01:50:49.427Z,78.85
2023-04-06T01:53:24.933Z,68.40
2023-04-06T01:56:16.524Z,128.57
2023-04-06T01:58:56.967Z,73.30
2023-04-06T02:01:28.411Z,141.55
2023-04-06T02:04:05.949Z,89.82
2023-04-06T02:09:37.496Z,91.22
2023-04-06T02:12:11.977Z,77.65
2023-04-06T02:14:48.046Z,69.00
2023-04-06T02:17:35.294Z,80.28
2023-04-06T02:20:08.867Z,81.68
2023-04-06T02:22:47.038Z,76.90
2023-04-06T02:25:23.635Z,76.53
2023-04-06T02:27:57.302Z,90.40
2023-04-06T02:30:36.935Z,96.15
2023-04-06T02:33:11.967Z,95.70
2023-04-06T02:35:56.029Z,78.53
2023-04-06T02:38:47.015Z,78.57
2023-04-06T02:41:22.036Z,206.52
2023-04-06T02:44:09.562Z,79.00
2023-04-06T02:46:46.242Z,96.25
2023-04-06T02:49:26.598Z,75.30
2023-04-06T02:52:05.940Z,84.70
2023-04-06T02:54:37.369Z,97.70
2023-04-06T02:57:22.090Z,81.80
2023-04-06T02:59:58.012Z,70.88
2023-04-06T03:02:44.549Z,71.85
2023-04-06T03:05:22.545Z,88.88
2023-04-06T03:07:51.556Z,70.40
2023-04-06T03:10:24.855Z,87.57
2023-04-06T03:13:01.893Z,76.53
2023-04-06T03:15:45.122Z,77.68
2023-04-06T03:18:29.692Z,76.78
2023-04-06T03:21:07.105Z,81.22
2023-04-06T03:23:39.112Z,106.93
2023-04-06T03:26:21.094Z,78.95
2023-04-06T03:29:04.885Z,95.75
2023-04-06T03:31:40.175Z,95.15
2023-04-06T03:34:21.751Z,145.27
2023-04-06T03:37:12.325Z,73.75
2023-04-06T03:39:48.895Z,88.05
2023-04-06T03:42:24.577Z,79.68
2023-04-06T03:45:06.218Z,82.53
2023-04-06T03:48:07.959Z,90.43
2023-04-06T03:50:43.572Z,85.35
2023-04-06T03:53:18.998Z,91.55
2023-04-06T03:55:57.923Z,114.75
2023-04-06T03:58:44.416Z,74.50
2023-04-06T04:01:18.712Z,82.75
2023-04-06T04:03:54.339Z,83.60
2023-04-06T04:06:31.893Z,89.47
2023-04-06T04:09:08.235Z,79.15
2023-04-06T04:14:50.922Z,96.43
2023-04-06T04:17:28.447Z,103.05
2023-04-06T04:20:01.249Z,119.57
2023-04-06T04:22:33.458Z,116.60
2023-04-06T04:25:04.973Z,129.13
2023-04-06T04:27:59.932Z,143.05
2023-04-06T04:30:40.660Z,70.90
2023-04-06T04:33:12.833Z,85.65
2023-04-06T04:35:44.829Z,108.53
2023-04-06T04:38:13.608Z,66.95
2023-04-06T04:40:42.387Z,68.45
2023-04-06T04:43:10.993Z,101.30
2023-04-06T04:45:39.606Z,83.00
2023-04-06T04:48:09.779Z,136.60
2023-04-06T04:50:38.484Z,72.60
2023-04-06T04:53:08.536Z,76.63
2023-04-06T04:55:37.262Z,76.13
2023-04-06T04:58:05.951Z,73.57
2023-04-06T05:00:34.597Z,104.13
2023-04-06T05:03:05.183Z,150.43
2023-04-06T05:05:34.243Z,76.50
2023-04-06T05:08:06.297Z,85.97
2023-04-06T05:10:36.703Z,152.75
2023-04-06T05:13:05.584Z,82.15
2023-04-06T05:15:38.455Z,79.93
2023-04-06T05:18:08.436Z,89.28
2023-04-06T05:20:41.141Z,284.83
2023-04-06T05:23:10.737Z,169.60
2023-04-06T05:25:43.587Z,223.38
2023-04-06T05:28:15.476Z,214.05
2023-04-06T05:33:27.681Z,164.45
2023-04-06T05:35:56.796Z,321.60
2023-04-06T05:38:25.661Z,160.55
2023-04-06T05:40:55.998Z,200.80
2023-04-06T05:43:27.390Z,141.77
2023-04-06T05:46:05.434Z,126.20
2023-04-06T05:48:51.090Z,204.32
2023-04-06T05:51:19.858Z,288.67
2023-04-06T05:53:50.183Z,353.98
2023-04-06T05:56:20.987Z,172.00
2023-04-06T05:58:49.992Z,113.63
2023-04-06T06:01:18.819Z,250.30
2023-04-06T06:03:47.447Z,254.13
2023-04-06T06:06:16.316Z,392.02
2023-04-06T06:08:44.883Z,138.13
2023-04-06T06:11:13.819Z,142.75
2023-04-06T06:13:44.288Z,264.60
2023-04-06T06:16:13.775Z,261.10
2023-04-06T06:18:42.670Z,83.85
2023-04-06T06:21:12.944Z,108.57
2023-04-06T06:23:41.649Z,265.73
2023-04-06T06:26:10.388Z,91.72
2023-04-06T06:28:39.073Z,256.88
2023-04-06T06:31:09.301Z,212.88
2023-04-06T06:33:37.901Z,333.70
2023-04-06T06:36:06.755Z,75.70
2023-04-06T06:38:35.691Z,201.63
2023-04-06T06:41:04.283Z,280.20
2023-04-06T06:43:32.802Z,246.93
2023-04-06T06:46:01.504Z,134.70
2023-04-06T06:48:31.613Z,265.13
2023-04-06T06:51:00.466Z,221.10
2023-04-06T06:53:29.360Z,269.13
2023-04-06T06:55:57.901Z,245.98
2023-04-06T06:58:26.434Z,178.38
2023-04-06T07:00:59.325Z,218.10
2023-04-06T07:03:28.088Z,271.00
2023-04-06T07:05:58.521Z,149.13
2023-04-06T07:08:27.366Z,205.10
2023-04-06T07:10:57.410Z,246.48
2023-04-06T07:13:27.801Z,166.88
2023-04-06T07:15:56.701Z,379.15
2023-04-06T07:18:25.968Z,779.92
2023-04-06T07:20:54.766Z,330.67
2023-04-06T07:23:24.835Z,132.63
2023-04-06T07:25:55.078Z,217.65
2023-04-06T07:28:23.785Z,449.10
2023-04-06T07:30:52.487Z,272.33
2023-04-06T07:33:21.172Z,413.95
2023-04-06T07:35:50.046Z,222.77
2023-04-06T07:38:18.704Z,217.82
2023-04-06T07:40:48.824Z,481.63
2023-04-06T07:43:18.165Z,294.60
2023-04-06T07:45:46.853Z,465.92
2023-04-06T07:48:16.054Z,223.10
2023-04-06T07:50:44.813Z,209.38
2023-04-06T07:53:13.427Z,259.40
2023-04-06T07:55:42.872Z,196.07
2023-04-06T07:58:16.562Z,233.82
2023-04-06T08:01:10.440Z,286.07
2023-04-06T08:03:39.340Z,190.10
2023-04-06T08:06:08.344Z,374.60
2023-04-06T08:08:36.883Z,266.45
2023-04-06T08:11:05.938Z,256.92
2023-04-06T08:13:36.618Z,186.70
2023-04-06T08:16:05.460Z,230.73
2023-04-06T08:18:34.163Z,243.35
2023-04-06T08:21:02.987Z,388.50
2023-04-06T08:23:31.682Z,278.95
2023-04-06T08:26:00.645Z,284.80
2023-04-06T08:28:29.548Z,236.52
2023-04-06T08:30:59.959Z,311.40
2023-04-06T08:33:28.869Z,227.60
2023-04-06T08:35:57.612Z,219.13
2023-04-06T08:38:26.428Z,255.25
2023-04-06T08:40:55.273Z,197.77
2023-04-06T08:43:25.635Z,342.77
2023-04-06T08:45:54.625Z,212.80
2023-04-06T08:48:25.434Z,382.08
2023-04-06T08:50:54.334Z,176.02
2023-04-06T08:53:24.417Z,203.10
2023-04-06T08:55:53.829Z,296.13
2023-04-06T08:58:35.073Z,349.70
2023-04-06T09:01:10.274Z,216.20
2023-04-06T09:03:42.327Z,206.70
2023-04-06T09:06:12.191Z,175.05
2023-04-06T09:08:42.150Z,291.10
2023-04-06T09:11:11.234Z,240.65
2023-04-06T09:13:50.572Z,266.80
2023-04-06T09:16:20.076Z,278.48
2023-04-06T09:18:51.213Z,438.60
2023-04-06T09:21:24.601Z,215.57
2023-04-06T09:24:02.074Z,258.08
2023-04-06T09:26:31.327Z,488.33
2023-04-06T09:29:02.728Z,246.57
2023-04-06T09:31:33.999Z,222.35
2023-04-06T09:34:04.127Z,265.67
2023-04-06T09:36:33.376Z,205.38
2023-04-06T09:39:03.544Z,209.95
2023-04-06T09:41:33.449Z,358.17
2023-04-06T09:44:06.151Z,261.52
2023-04-06T09:46:50.467Z,266.85
2023-04-06T09:49:21.579Z,320.27
2023-04-06T09:51:54.804Z,184.80
2023-04-06T09:54:24.870Z,209.20
2023-04-06T09:56:56.696Z,290.13
2023-04-06T09:59:31.386Z,233.10
2023-04-06T10:02:01.510Z,237.80
2023-04-06T10:04:39.000Z,275.25
2023-04-06T10:07:08.212Z,234.05
2023-04-06T10:09:37.525Z,267.45
2023-04-06T10:12:07.079Z,233.48
2023-04-06T10:14:37.924Z,255.77
2023-04-06T10:17:07.173Z,230.32
2023-04-06T10:19:44.316Z,241.75
2023-04-06T10:22:15.164Z,194.80
2023-04-06T10:24:43.687Z,263.52
2023-04-06T10:27:12.305Z,249.50
2023-04-06T10:29:50.673Z,453.42
2023-04-06T10:32:19.146Z,176.30
2023-04-06T10:34:49.043Z,182.77
2023-04-06T10:37:19.823Z,199.13
2023-04-06T10:39:49.168Z,401.15
2023-04-06T10:42:17.659Z,200.40
2023-04-06T10:44:47.456Z,230.30
2023-04-06T10:47:19.961Z,194.73
2023-04-06T10:49:49.850Z,211.40
2023-04-06T10:52:18.348Z,231.48
2023-04-06T10:54:48.306Z,222.13
2023-04-06T10:57:18.362Z,247.80
2023-04-06T10:59:47.315Z,439.13
2023-04-06T11:02:23.488Z,276.60
2023-04-06T11:05:00.195Z,256.63
2023-04-06T11:07:30.548Z,216.75
2023-04-06T11:10:13.948Z,275.98
2023-04-06T11:15:13.024Z,279.52
2023-04-06T11:17:41.809Z,416.42
2023-04-06T11:20:13.249Z,238.60
2023-04-06T11:22:53.849Z,188.23
2023-04-06T11:25:22.555Z,200.82
2023-04-06T11:27:51.228Z,199.90
2023-04-06T11:30:19.790Z,173.88
2023-04-06T11:32:49.258Z,286.52
2023-04-06T11:35:24.193Z,246.15
2023-04-06T11:37:52.989Z,182.85
2023-04-06T11:40:23.900Z,242.55
2023-04-06T11:42:56.111Z,200.48
2023-04-06T11:45:24.809Z,182.52
2023-04-06T11:48:00.276Z,253.77
2023-04-06T11:50:35.415Z,177.27
2023-04-06T11:53:05.005Z,180.30
2023-04-06T11:55:40.669Z,197.50
2023-04-06T11:58:09.506Z,341.17
2023-04-06T12:00:38.134Z,246.10
2023-04-06T12:03:07.016Z,408.50
2023-04-06T12:05:37.254Z,247.63
2023-04-06T12:08:05.911Z,199.93
2023-04-06T12:10:34.456Z,187.57
2023-04-06T12:13:02.998Z,387.55
2023-04-06T12:15:31.512Z,210.85
2023-04-06T12:18:00.250Z,186.35
2023-04-06T12:20:28.981Z,265.75
2023-04-06T12:22:59.168Z,185.80
2023-04-06T12:25:28.337Z,389.75
2023-04-06T12:27:57.403Z,271.70
2023-04-06T12:30:25.896Z,196.35
2023-04-06T12:32:56.160Z,227.13
2023-04-06T12:35:25.066Z,248.45
2023-04-06T12:37:53.770Z,217.60
2023-04-06T12:40:23.878Z,216.88
2023-04-06T12:42:52.390Z,223.18
2023-04-06T12:45:21.010Z,216.85
2023-04-06T12:47:49.627Z,304.67
2023-04-06T12:50:18.227Z,272.02
2023-04-06T12:52:46.809Z,242.52
2023-04-06T12:55:15.760Z,198.57
2023-04-06T12:57:47.378Z,239.13
2023-04-06T13:00:16.963Z,205.82
2023-04-06T13:02:48.282Z,201.70
2023-04-06T13:05:19.556Z,234.07
2023-04-06T13:07:48.656Z,200.30
2023-04-06T13:10:17.260Z,264.00
2023-04-06T13:12:47.183Z,380.30
2023-04-06T13:15:16.081Z,218.35
2023-04-06T13:17:44.795Z,235.25
2023-04-06T13:20:13.959Z,260.27
2023-04-06T13:22:42.516Z,256.83
2023-04-06T13:25:11.269Z,291.15
2023-04-06T13:27:40.374Z,235.68
2023-04-06T13:30:12.022Z,240.07
2023-04-06T13:32:40.568Z,233.30
2023-04-06T13:35:10.058Z,334.67
2023-04-06T13:37:38.682Z,248.77
2023-04-06T13:40:08.446Z,248.65
2023-04-06T13:42:37.121Z,283.15
2023-04-06T13:45:06.298Z,287.52
2023-04-06T13:47:36.735Z,368.05
2023-04-06T13:50:05.612Z,286.73
2023-04-06T13:52:34.308Z,381.98
2023-04-06T13:55:03.372Z,302.98
2023-04-06T13:57:34.317Z,251.95
2023-04-06T14:00:05.187Z,350.35
2023-04-06T14:02:37.382Z,296.73
2023-04-06T14:05:06.610Z,388.48
2023-04-06T14:07:35.379Z,446.83
2023-04-06T14:10:03.886Z,286.95
2023-04-06T14:12:32.697Z,289.50
2023-04-06T14:15:01.338Z,264.05
2023-04-06T14:17:30.018Z,306.05
2023-04-06T14:19:59.876Z,283.65
2023-04-06T14:24:56.879Z,300.92
2023-04-06T14:27:25.405Z,320.45
2023-04-06T14:29:53.876Z,298.65
2023-04-06T14:32:22.918Z,296.88
2023-04-06T14:34:51.705Z,389.50
2023-04-06T14:37:22.129Z,378.90
2023-04-06T14:39:50.556Z,287.15
2023-04-06T14:42:18.944Z,354.70
2023-04-06T14:44:47.328Z,306.38
2023-04-06T14:47:16.707Z,300.95
2023-04-06T14:49:45.443Z,341.38
2023-04-06T14:52:23.526Z,290.60
2023-04-06T15:06:11.164Z,304.33
2023-04-06T15:12:15.689Z,313.15
2023-04-06T15:15:24.805Z,380.65
2023-04-06T15:18:18.058Z,327.35
2023-04-06T15:24:56.662Z,320.40
2023-04-06T15:28:40.859Z,289.52
2023-04-06T15:31:36.758Z,296.38
2023-04-06T15:34:12.141Z,295.48
2023-04-06T15:36:47.761Z,251.07
2023-04-06T15:39:24.103Z,263.52
2023-04-06T15:42:02.498Z,257.88
2023-04-06T15:44:31.695Z,294.20
2023-04-06T15:47:10.472Z,240.25
2023-04-06T15:49:46.710Z,235.20
2023-04-06T15:53:35.788Z,301.98
2023-04-06T16:02:32.866Z,252.65
2023-04-06T16:05:02.965Z,253.98
2023-04-06T16:07:31.756Z,239.65
2023-04-06T16:10:00.347Z,223.10
2023-04-06T16:12:29.453Z,222.70
2023-04-06T16:14:57.911Z,468.95
2023-04-06T16:17:26.275Z,228.98
2023-04-06T16:19:56.368Z,270.88
2023-04-06T16:22:24.906Z,384.13
2023-04-06T16:24:53.277Z,200.50
2023-04-06T16:27:22.073Z,222.98
2023-04-06T16:29:50.722Z,199.48
2023-04-06T16:32:19.182Z,182.95
2023-04-06T16:34:47.780Z,197.77
2023-04-06T16:37:18.215Z,204.38
2023-04-06T16:39:46.643Z,176.60
2023-04-06T16:42:17.691Z,237.30
2023-04-06T16:44:48.449Z,198.52
2023-04-06T16:47:17.500Z,223.10
2023-04-06T16:49:46.099Z,274.60
2023-04-06T16:52:15.879Z,184.15
2023-04-06T16:54:44.265Z,307.92
2023-04-06T16:57:14.258Z,179.18
2023-04-06T16:59:43.393Z,189.52
2023-04-06T17:02:12.026Z,196.82
2023-04-06T17:04:40.711Z,279.52
2023-04-06T17:07:10.782Z,188.13
2023-04-06T17:09:41.840Z,194.07
2023-04-06T17:12:10.396Z,256.83
2023-04-06T17:14:38.770Z,177.85
2023-04-06T17:17:07.831Z,176.43
2023-04-06T17:19:36.437Z,175.07
2023-04-06T17:22:04.814Z,203.77
2023-04-06T17:24:33.196Z,184.55
2023-04-06T17:27:04.397Z,178.68
2023-04-06T17:29:32.749Z,185.73
2023-04-06T17:32:01.110Z,166.23
2023-04-06T17:34:29.658Z,182.93
2023-04-06T17:36:58.030Z,172.85
2023-04-06T17:39:26.543Z,175.63
2023-04-06T17:41:54.922Z,167.27
2023-04-06T17:44:24.679Z,231.77
2023-04-06T17:46:53.384Z,222.68
2023-04-06T17:49:21.727Z,248.23
2023-04-06T17:51:50.302Z,182.82
2023-04-06T17:54:18.609Z,185.27
2023-04-06T17:56:49.066Z,188.52
2023-04-06T17:59:17.442Z,232.95
2023-04-06T18:01:50.521Z,214.50
2023-04-06T18:04:24.565Z,188.10
2023-04-06T18:06:55.588Z,239.82
2023-04-06T18:11:53.313Z,174.18
2023-04-06T18:14:22.030Z,181.35
2023-04-06T18:16:53.086Z,166.40
2023-04-06T18:19:21.850Z,273.27
2023-04-06T18:21:53.269Z,196.77
2023-04-06T18:24:37.513Z,181.48
2023-04-06T18:27:10.646Z,177.00
2023-04-06T18:29:39.675Z,174.88
2023-04-06T18:32:11.180Z,184.55
2023-04-06T18:34:39.996Z,192.65
2023-04-06T18:37:08.727Z,272.17
2023-04-06T18:39:39.962Z,265.60
2023-04-06T18:42:08.672Z,212.48
2023-04-06T18:44:39.039Z,177.07
2023-04-06T18:47:09.187Z,187.68
2023-04-06T18:49:38.280Z,182.00
2023-04-06T18:52:08.050Z,185.32
2023-04-06T18:54:36.797Z,246.15
2023-04-06T18:57:05.661Z,192.32
2023-04-06T18:59:34.413Z,195.23
2023-04-06T19:02:03.320Z,189.35
2023-04-06T19:04:34.008Z,187.00
2023-04-06T19:07:02.737Z,188.85
2023-04-06T19:10:18.684Z,188.25
2023-04-06T19:16:43.882Z,227.52
2023-04-06T19:27:46.896Z,251.75
2023-04-06T19:39:10.393Z,244.25
2023-04-06T20:10:46.366Z,251.52
2023-04-06T20:13:44.350Z,279.67
2023-04-06T20:16:25.791Z,300.67
2023-04-06T20:22:45.073Z,385.52
2023-04-06T20:28:23.171Z,355.38
2023-04-06T20:31:33.776Z,335.23
2023-04-06T20:34:14.415Z,354.45
2023-04-06T20:36:50.869Z,335.00
2023-04-06T20:39:26.443Z,389.92
2023-04-06T20:42:01.990Z,388.30
2023-04-06T20:44:43.256Z,357.40
2023-04-06T20:47:27.530Z,359.25
2023-04-06T20:50:09.727Z,368.38
2023-04-06T20:52:47.466Z,383.15
2023-04-06T20:55:32.405Z,403.00
2023-04-06T21:00:37.503Z,384.10
2023-04-06T21:03:19.938Z,389.60
2023-04-06T21:08:51.236Z,347.55
2023-04-06T21:11:26.308Z,367.70
2023-04-06T21:14:11.123Z,362.88
2023-04-06T21:16:55.914Z,322.42
2023-04-06T21:19:40.467Z,505.77
2023-04-06T21:22:20.312Z,353.48
2023-04-06T21:24:59.758Z,288.73
2023-04-06T21:27:30.714Z,301.63
2023-04-06T21:29:59.709Z,336.58
2023-04-06T21:32:33.477Z,336.73
2023-04-06T21:35:04.471Z,340.67
2023-04-06T21:37:40.858Z,373.38
2023-04-06T21:40:13.684Z,398.30
2023-04-06T21:42:42.665Z,448.60
2023-04-06T21:45:14.906Z,468.60
2023-04-06T21:47:44.450Z,498.60
2023-04-06T21:50:19.088Z,481.38
2023-04-06T21:55:18.668Z,480.10
2023-04-06T21:57:47.506Z,569.42
2023-04-06T22:00:17.589Z,466.42
2023-04-06T22:02:47.895Z,518.58
2023-04-06T22:05:21.130Z,532.60
2023-04-06T22:07:50.300Z,533.78
2023-04-06T22:10:20.620Z,542.40
2023-04-06T22:12:51.790Z,576.97
2023-04-06T22:15:23.691Z,529.67
2023-04-06T22:17:53.616Z,518.58
2023-04-06T22:20:25.875Z,528.50
2023-04-06T22:22:54.946Z,534.33
2023-04-06T22:25:25.743Z,517.78
2023-04-06T22:28:09.918Z,503.10
2023-04-06T22:30:42.831Z,520.15
2023-04-06T22:33:11.820Z,537.33
2023-04-06T22:35:42.400Z,528.67
2023-04-06T22:38:11.371Z,551.22
2023-04-06T22:40:40.173Z,536.88
2023-04-06T22:43:08.961Z,554.42
2023-04-06T22:45:39.130Z,543.45
2023-04-06T22:48:08.143Z,541.42
2023-04-06T22:50:36.915Z,550.15
2023-04-06T22:53:07.128Z,573.55
2023-04-06T22:55:35.686Z,547.28
2023-04-06T22:58:04.268Z,549.20
2023-04-06T23:00:32.928Z,551.97
2023-04-06T23:03:01.624Z,565.78
2023-04-06T23:05:30.782Z,571.17
2023-04-06T23:07:59.265Z,565.78
2023-04-06T23:10:29.340Z,562.35
2023-04-06T23:12:57.888Z,583.10
2023-04-06T23:15:26.250Z,586.72
2023-04-06T23:17:56.210Z,567.03
2023-04-06T23:20:25.032Z,573.13
2023-04-06T23:22:53.519Z,583.50
2023-04-06T23:25:22.177Z,578.65
2023-04-06T23:27:52.370Z,567.08
2023-04-06T23:30:21.294Z,550.70
2023-04-06T23:32:49.760Z,570.75
2023-04-06T23:35:18.533Z,591.28
2023-04-06T23:37:46.952Z,580.28
2023-04-06T23:40:15.483Z,551.03
2023-04-06T23:42:44.049Z,538.90
2023-04-06T23:45:14.144Z,603.83
2023-04-06T23:47:42.873Z,577.03
2023-04-06T23:50:12.052Z,593.83
2023-04-06T23:52:40.725Z,583.53
2023-04-06T23:55:09.879Z,567.10
2023-04-06T23:57:38.620Z,582.35
